createdAt,value
2022-09-10T00:02:03.043Z,15.10
2022-09-10T00:04:30.528Z,15.85
2022-09-10T00:06:57.191Z,22.38
2022-09-10T00:09:24.027Z,18.83
2022-09-10T00:11:50.643Z,20.92
2022-09-10T00:14:21.101Z,20.00
2022-09-10T00:16:48.573Z,16.83
2022-09-10T00:19:15.936Z,11.65
2022-09-10T00:21:44.381Z,18.52
2022-09-10T00:24:11.198Z,15.60
2022-09-10T00:26:39.624Z,18.33
2022-09-10T00:29:11.855Z,19.92
2022-09-10T00:34:06.735Z,14.45
2022-09-10T00:36:36.977Z,14.82
2022-09-10T00:39:07.843Z,17.65
2022-09-10T00:41:36.725Z,14.18
2022-09-10T00:44:08.527Z,23.92
2022-09-10T00:46:48.339Z,24.20
2022-09-10T00:49:21.431Z,23.40
2022-09-10T00:51:51.854Z,20.65
2022-09-10T00:54:22.031Z,17.42
2022-09-10T00:56:49.774Z,17.80
2022-09-10T00:59:20.323Z,17.80
2022-09-10T01:01:49.305Z,20.30
2022-09-10T01:04:16.178Z,17.00
2022-09-10T01:06:45.781Z,16.00
2022-09-10T01:09:14.238Z,13.57
2022-09-10T01:11:46.582Z,22.95
2022-09-10T01:14:28.305Z,17.10
2022-09-10T01:17:00.416Z,17.17
2022-09-10T01:19:32.936Z,18.30
2022-09-10T01:22:15.979Z,16.88
2022-09-10T01:25:03.835Z,19.40
2022-09-10T01:27:38.229Z,19.83
2022-09-10T01:30:35.128Z,14.13
2022-09-10T01:33:12.458Z,18.33
2022-09-10T01:35:48.236Z,16.60
2022-09-10T01:38:20.762Z,15.35
2022-09-10T01:40:47.959Z,17.80
2022-09-10T01:43:14.948Z,17.17
2022-09-10T01:46:19.276Z,17.70
2022-09-10T01:49:22.170Z,13.23
2022-09-10T01:52:33.654Z,18.58
2022-09-10T01:55:30.193Z,15.38
2022-09-10T01:58:34.691Z,21.90
2022-09-10T02:01:16.149Z,16.15
2022-09-10T02:03:47.890Z,16.25
2022-09-10T02:06:19.460Z,15.07
2022-09-10T02:08:49.316Z,18.52
2022-09-10T02:11:16.280Z,16.88
2022-09-10T02:13:43.071Z,12.18
2022-09-10T02:16:14.596Z,14.57
2022-09-10T02:18:42.738Z,17.85
2022-09-10T02:21:11.674Z,17.48
2022-09-10T02:23:45.131Z,16.77
2022-09-10T02:26:14.465Z,19.80
2022-09-10T02:28:45.819Z,15.98
2022-09-10T02:31:13.294Z,18.25
2022-09-10T02:33:39.893Z,19.02
2022-09-10T02:36:06.880Z,16.75
2022-09-10T02:38:33.706Z,19.27
2022-09-10T02:41:00.409Z,17.88
2022-09-10T02:43:27.980Z,21.13
2022-09-10T02:45:58.579Z,17.80
2022-09-10T02:48:26.523Z,21.33
2022-09-10T02:50:54.388Z,15.15
2022-09-10T02:53:21.140Z,15.25
2022-09-10T02:55:48.505Z,18.40
2022-09-10T02:58:16.241Z,19.92
2022-09-10T03:00:43.655Z,21.60
2022-09-10T03:03:10.431Z,18.33
2022-09-10T03:05:38.348Z,19.10
2022-09-10T03:08:06.201Z,18.30
2022-09-10T03:10:33.190Z,15.13
2022-09-10T03:13:00.372Z,13.02
2022-09-10T03:15:28.052Z,16.00
2022-09-10T03:17:54.890Z,15.88
2022-09-10T03:20:23.013Z,14.85
2022-09-10T03:22:51.447Z,16.92
2022-09-10T03:25:22.690Z,15.07
2022-09-10T03:27:49.331Z,17.10
2022-09-10T03:30:16.100Z,12.50
2022-09-10T03:32:43.222Z,15.48
2022-09-10T03:35:10.266Z,14.80
2022-09-10T03:37:36.901Z,13.23
2022-09-10T03:40:04.060Z,16.15
2022-09-10T03:42:30.644Z,21.75
2022-09-10T03:44:57.229Z,17.98
2022-09-10T03:47:24.055Z,21.70
2022-09-10T03:49:50.854Z,17.38
2022-09-10T03:52:18.143Z,16.55
2022-09-10T03:54:45.660Z,16.85
2022-09-10T03:57:12.289Z,19.08
2022-09-10T03:59:41.189Z,17.73
2022-09-10T04:02:09.361Z,16.52
2022-09-10T04:04:37.394Z,23.38
2022-09-10T04:07:05.088Z,15.90
2022-09-10T04:09:32.586Z,15.27
2022-09-10T04:12:00.083Z,19.08
2022-09-10T04:14:27.161Z,18.65
2022-09-10T04:16:53.867Z,16.08
2022-09-10T04:19:20.824Z,20.65
2022-09-10T04:21:47.640Z,17.77
2022-09-10T04:24:14.495Z,22.65
2022-09-10T04:26:41.748Z,19.88
2022-09-10T04:29:08.639Z,20.35
2022-09-10T04:31:35.311Z,14.85
2022-09-10T04:34:02.016Z,18.35
2022-09-10T04:36:29.112Z,17.02
2022-09-10T04:38:55.656Z,25.73
2022-09-10T04:41:22.371Z,19.85
2022-09-10T04:43:49.101Z,14.55
2022-09-10T04:46:15.849Z,16.23
2022-09-10T04:48:42.439Z,19.65
2022-09-10T04:51:18.710Z,23.50
2022-09-10T04:53:46.060Z,15.63
2022-09-10T04:56:13.340Z,20.67
2022-09-10T04:58:41.311Z,20.27
2022-09-10T05:01:08.658Z,18.83
2022-09-10T05:03:35.515Z,21.73
2022-09-10T05:06:02.692Z,18.17
2022-09-10T05:08:30.177Z,21.63
2022-09-10T05:10:57.406Z,19.58
2022-09-10T05:13:24.285Z,16.65
2022-09-10T05:15:50.933Z,16.05
2022-09-10T05:18:17.489Z,18.05
2022-09-10T05:20:45.042Z,16.38
2022-09-10T05:23:11.869Z,15.48
2022-09-10T05:25:39.239Z,17.58
2022-09-10T05:28:06.031Z,19.75
2022-09-10T05:30:33.016Z,17.63
2022-09-10T05:33:02.859Z,16.38
2022-09-10T05:35:30.270Z,23.52
2022-09-10T05:37:57.584Z,19.25
2022-09-10T05:40:25.496Z,18.25
2022-09-10T05:42:52.254Z,21.23
2022-09-10T05:45:19.433Z,14.93
2022-09-10T05:47:46.707Z,18.55
2022-09-10T05:50:14.310Z,16.23
2022-09-10T05:52:41.195Z,14.07
2022-09-10T05:55:08.309Z,20.30
2022-09-10T05:57:35.518Z,13.95
2022-09-10T06:00:04.023Z,12.05
2022-09-10T06:02:30.676Z,20.80
2022-09-10T06:04:58.170Z,16.20
2022-09-10T06:07:25.145Z,16.00
2022-09-10T06:09:51.769Z,17.20
2022-09-10T06:12:18.919Z,18.00
2022-09-10T06:14:45.656Z,16.42
2022-09-10T06:17:12.424Z,15.00
2022-09-10T06:19:39.963Z,8.57
2022-09-10T06:22:06.583Z,14.55
2022-09-10T06:24:33.225Z,16.10
2022-09-10T06:26:59.812Z,10.07
2022-09-10T06:29:26.395Z,13.45
2022-09-10T06:31:52.976Z,16.00
2022-09-10T06:34:19.540Z,14.10
2022-09-10T06:36:50.154Z,11.73
2022-09-10T06:39:17.171Z,16.42
2022-09-10T06:41:47.873Z,25.85
2022-09-10T06:44:16.345Z,15.32
2022-09-10T06:49:31.471Z,11.73
2022-09-10T06:51:58.244Z,21.02
2022-09-10T06:54:26.457Z,15.00
2022-09-10T06:56:53.126Z,11.52
2022-09-10T06:59:19.713Z,12.82
2022-09-10T07:01:47.506Z,14.73
2022-09-10T07:04:14.287Z,15.85
2022-09-10T07:06:40.917Z,13.27
2022-09-10T07:09:07.572Z,18.20
2022-09-10T07:11:37.975Z,14.57
2022-09-10T07:14:07.417Z,14.02
2022-09-10T07:16:34.551Z,18.55
2022-09-10T07:19:01.348Z,15.77
2022-09-10T07:21:28.756Z,16.77
2022-09-10T07:23:57.763Z,16.65
2022-09-10T07:26:25.805Z,14.35
2022-09-10T07:28:52.862Z,20.65
2022-09-10T07:31:24.266Z,14.50
2022-09-10T07:33:51.270Z,14.98
2022-09-10T07:36:18.870Z,15.07
2022-09-10T07:38:45.588Z,14.13
2022-09-10T07:41:15.419Z,15.38
2022-09-10T07:43:43.773Z,16.58
2022-09-10T07:46:19.509Z,15.98
2022-09-10T07:48:56.816Z,14.07
2022-09-10T07:51:24.825Z,15.60
2022-09-10T07:53:56.493Z,15.02
2022-09-10T07:56:23.983Z,15.05
2022-09-10T07:58:51.333Z,11.45
2022-09-10T08:01:19.849Z,10.80
2022-09-10T08:03:47.019Z,13.20
2022-09-10T08:06:13.706Z,17.23
2022-09-10T08:08:40.589Z,11.90
2022-09-10T08:11:13.816Z,11.07
2022-09-10T08:13:42.316Z,11.65
2022-09-10T08:16:12.307Z,13.63
2022-09-10T08:18:39.726Z,9.98
2022-09-10T08:21:10.766Z,10.50
2022-09-10T08:23:39.721Z,13.32
2022-09-10T08:26:08.227Z,12.93
2022-09-10T08:28:35.740Z,13.98
2022-09-10T08:31:07.842Z,16.55
2022-09-10T08:33:36.065Z,14.05
2022-09-10T08:36:04.799Z,16.63
2022-09-10T08:38:34.524Z,19.92
2022-09-10T08:41:08.528Z,13.60
2022-09-10T08:43:44.098Z,13.93
2022-09-10T08:46:21.298Z,18.17
2022-09-10T08:48:58.706Z,10.52
2022-09-10T08:51:30.122Z,11.20
2022-09-10T08:54:02.844Z,9.00
2022-09-10T08:56:30.261Z,19.25
2022-09-10T08:59:17.284Z,11.70
2022-09-10T09:02:31.612Z,13.00
2022-09-10T09:05:15.812Z,14.27
2022-09-10T09:07:42.781Z,13.98
2022-09-10T09:10:24.729Z,17.05
2022-09-10T09:13:22.620Z,16.83
2022-09-10T09:15:52.102Z,18.52
2022-09-10T09:18:38.347Z,17.88
2022-09-10T09:21:16.615Z,13.43
2022-09-10T09:24:14.046Z,14.57
2022-09-10T09:26:45.245Z,14.27
2022-09-10T09:29:19.137Z,17.05
2022-09-10T09:31:53.739Z,14.20
2022-09-10T09:34:35.523Z,20.33
2022-09-10T09:37:12.060Z,10.52
2022-09-10T09:40:06.407Z,14.63
2022-09-10T09:43:03.308Z,17.50
2022-09-10T09:45:44.511Z,17.13
2022-09-10T09:48:17.165Z,16.35
2022-09-10T09:50:50.262Z,11.88
2022-09-10T09:53:25.709Z,21.45
2022-09-10T09:56:04.560Z,16.75
2022-09-10T09:58:34.309Z,14.95
2022-09-10T10:01:04.252Z,15.38
2022-09-10T10:03:48.494Z,10.32
2022-09-10T10:06:16.775Z,19.05
2022-09-10T10:08:56.307Z,11.57
2022-09-10T10:11:38.969Z,23.52
2022-09-10T10:14:23.770Z,15.90
2022-09-10T10:16:57.328Z,15.52
2022-09-10T10:19:34.913Z,10.73
2022-09-10T10:22:19.823Z,16.45
2022-09-10T10:24:49.052Z,18.00
2022-09-10T10:27:54.420Z,12.35
2022-09-10T10:30:24.257Z,15.68
2022-09-10T10:32:57.171Z,13.32
2022-09-10T10:35:29.801Z,16.13
2022-09-10T10:38:20.048Z,11.60
2022-09-10T10:41:04.861Z,26.33
2022-09-10T10:43:47.336Z,13.40
2022-09-10T10:46:22.042Z,17.35
2022-09-10T10:48:51.229Z,21.48
2022-09-10T10:51:45.519Z,16.55
2022-09-10T10:54:33.871Z,11.68
2022-09-10T10:57:30.617Z,15.82
2022-09-10T11:00:06.883Z,17.42
2022-09-10T11:02:50.576Z,16.73
2022-09-10T11:05:26.007Z,32.15
2022-09-10T11:07:54.627Z,20.17
2022-09-10T11:10:30.161Z,18.33
2022-09-10T11:13:18.799Z,23.73
2022-09-10T11:15:56.183Z,22.40
2022-09-10T11:18:43.056Z,25.42
2022-09-10T11:21:18.721Z,22.42
2022-09-10T11:23:47.834Z,27.33
2022-09-10T11:26:26.726Z,19.77
2022-09-10T11:29:26.000Z,23.17
2022-09-10T11:31:52.610Z,19.52
2022-09-10T11:34:19.290Z,20.00
2022-09-10T11:36:56.237Z,12.98
2022-09-10T11:39:33.403Z,16.30
2022-09-10T11:42:05.690Z,15.75
2022-09-10T11:44:45.158Z,18.52
2022-09-10T11:47:33.498Z,14.75
2022-09-10T11:50:11.202Z,12.90
2022-09-10T11:52:38.413Z,11.85
2022-09-10T11:55:08.607Z,16.75
2022-09-10T11:58:06.002Z,12.48
2022-09-10T12:00:39.477Z,14.27
2022-09-10T12:03:11.910Z,10.82
2022-09-10T12:05:54.899Z,12.55
2022-09-10T12:08:29.547Z,11.32
2022-09-10T12:11:07.030Z,29.17
2022-09-10T12:13:39.359Z,13.98
2022-09-10T12:16:19.271Z,18.48
2022-09-10T12:18:51.620Z,15.35
2022-09-10T12:21:41.398Z,16.05
2022-09-10T12:24:27.342Z,23.05
2022-09-10T12:26:55.095Z,15.57
2022-09-10T12:29:31.037Z,16.08
2022-09-10T12:32:20.365Z,15.48
2022-09-10T12:34:51.226Z,11.85
2022-09-10T12:37:23.987Z,12.73
2022-09-10T12:40:25.838Z,10.65
2022-09-10T12:42:59.026Z,19.92
2022-09-10T12:46:07.441Z,20.02
2022-09-10T12:48:37.164Z,13.13
2022-09-10T12:51:26.496Z,14.68
2022-09-10T12:54:28.748Z,19.23
2022-09-10T12:57:03.859Z,11.40
2022-09-10T12:59:43.505Z,9.00
2022-09-10T13:02:35.016Z,14.93
2022-09-10T13:05:26.935Z,10.82
2022-09-10T13:08:18.916Z,10.30
2022-09-10T13:13:32.092Z,11.35
2022-09-10T13:15:58.978Z,11.13
2022-09-10T13:18:34.700Z,10.20
2022-09-10T13:21:21.546Z,12.32
2022-09-10T13:23:53.479Z,8.93
2022-09-10T13:26:29.088Z,11.25
2022-09-10T13:28:56.488Z,8.75
2022-09-10T13:31:28.291Z,10.02
2022-09-10T13:34:24.673Z,13.60
2022-09-10T13:37:22.453Z,9.77
2022-09-10T13:40:20.161Z,11.45
2022-09-10T13:43:06.453Z,15.00
2022-09-10T13:45:50.228Z,13.48
2022-09-10T13:48:22.368Z,15.13
2022-09-10T13:51:32.581Z,15.43
2022-09-10T13:54:15.531Z,14.40
2022-09-10T13:56:44.016Z,12.32
2022-09-10T13:59:25.684Z,20.75
2022-09-10T14:01:54.838Z,14.05
2022-09-10T14:04:44.255Z,13.80
2022-09-10T14:07:17.408Z,13.13
2022-09-10T14:09:48.022Z,14.70
2022-09-10T14:12:17.744Z,17.77
2022-09-10T14:14:50.171Z,20.00
2022-09-10T14:17:31.642Z,16.67
2022-09-10T14:20:02.567Z,11.55
2022-09-10T14:22:31.978Z,9.90
2022-09-10T14:25:01.663Z,9.30
2022-09-10T14:27:32.856Z,10.50
2022-09-10T14:30:21.152Z,12.77
2022-09-10T14:32:47.905Z,15.63
2022-09-10T14:35:43.693Z,9.38
2022-09-10T14:38:30.379Z,10.07
2022-09-10T14:41:08.512Z,9.48
2022-09-10T14:43:39.161Z,13.35
2022-09-10T14:46:12.438Z,9.23
2022-09-10T14:48:42.511Z,12.18
2022-09-10T14:51:25.766Z,11.60
2022-09-10T14:53:55.263Z,11.43
2022-09-10T14:56:28.473Z,17.17
2022-09-10T14:59:13.266Z,16.95
2022-09-10T15:01:48.557Z,24.40
2022-09-10T15:04:18.470Z,22.30
2022-09-10T15:06:45.459Z,26.95
2022-09-10T15:09:14.028Z,23.90
2022-09-10T15:12:05.292Z,23.25
2022-09-10T15:14:33.809Z,14.15
2022-09-10T15:17:00.684Z,18.80
2022-09-10T15:19:28.129Z,14.88
2022-09-10T15:21:56.464Z,14.55
2022-09-10T15:24:24.248Z,11.52
2022-09-10T15:26:51.290Z,12.93
2022-09-10T15:29:18.316Z,19.85
2022-09-10T15:31:45.342Z,16.58
2022-09-10T15:34:12.344Z,39.58
2022-09-10T15:36:40.611Z,14.45
2022-09-10T15:39:11.339Z,13.30
2022-09-10T15:41:42.757Z,15.10
2022-09-10T15:44:12.664Z,11.30
2022-09-10T15:46:45.556Z,10.63
2022-09-10T15:49:12.829Z,11.73
2022-09-10T15:51:39.740Z,7.53
2022-09-10T15:54:07.014Z,8.60
2022-09-10T15:56:33.904Z,9.48
2022-09-10T15:59:01.124Z,12.85
2022-09-10T16:01:31.179Z,9.05
2022-09-10T16:04:02.927Z,7.13
2022-09-10T16:09:02.484Z,7.45
2022-09-10T16:11:34.611Z,17.17
2022-09-10T16:14:04.755Z,8.32
2022-09-10T16:16:32.647Z,8.38
2022-09-10T16:19:00.586Z,9.30
2022-09-10T16:21:31.182Z,7.53
2022-09-10T16:24:00.097Z,8.85
2022-09-10T16:26:33.803Z,8.77
2022-09-10T16:29:02.761Z,6.65
2022-09-10T16:31:32.626Z,10.00
2022-09-10T16:34:03.218Z,7.22
2022-09-10T16:36:33.156Z,4.10
2022-09-10T16:39:04.040Z,8.48
2022-09-10T16:41:32.033Z,7.90
2022-09-10T16:44:01.539Z,6.57
2022-09-10T16:46:28.776Z,13.07
2022-09-10T16:48:56.882Z,10.70
2022-09-10T16:51:25.181Z,10.10
2022-09-10T16:54:06.137Z,8.75
2022-09-10T16:56:37.311Z,7.30
2022-09-10T16:59:07.633Z,11.75
2022-09-10T17:01:35.938Z,9.48
2022-09-10T17:04:04.609Z,6.78
2022-09-10T17:06:31.507Z,10.88
2022-09-10T17:09:00.049Z,8.10
2022-09-10T17:11:31.699Z,10.25
2022-09-10T17:14:01.382Z,10.25
2022-09-10T17:16:33.655Z,12.50
2022-09-10T17:19:03.875Z,7.78
2022-09-10T17:21:32.543Z,6.60
2022-09-10T17:24:00.181Z,10.95
2022-09-10T17:26:27.275Z,7.80
2022-09-10T17:29:06.699Z,9.25
2022-09-10T17:31:34.910Z,10.93
2022-09-10T17:34:03.952Z,5.78
2022-09-10T17:36:31.432Z,8.82
2022-09-10T17:38:59.434Z,5.38
2022-09-10T17:41:30.387Z,8.90
2022-09-10T17:43:59.173Z,7.63
2022-09-10T17:46:26.952Z,14.13
2022-09-10T17:48:54.845Z,6.22
2022-09-10T17:51:24.857Z,4.60
2022-09-10T17:53:53.212Z,8.13
2022-09-10T17:56:28.805Z,11.05
2022-09-10T17:59:05.042Z,9.02
2022-09-10T18:01:39.221Z,9.80
2022-09-10T18:04:08.966Z,8.32
2022-09-10T18:06:43.037Z,7.18
2022-09-10T18:09:11.775Z,9.45
2022-09-10T18:11:43.355Z,6.68
2022-09-10T18:14:19.082Z,6.25
2022-09-10T18:16:54.017Z,7.10
2022-09-10T18:19:24.839Z,6.75
2022-09-10T18:21:57.459Z,6.57
2022-09-10T18:24:32.407Z,12.25
2022-09-10T18:27:04.684Z,6.75
2022-09-10T18:29:46.959Z,11.13
2022-09-10T18:32:18.900Z,9.02
2022-09-10T18:37:22.202Z,8.23
2022-09-10T18:39:50.257Z,8.57
2022-09-10T18:42:20.892Z,10.90
2022-09-10T18:44:48.166Z,9.52
2022-09-10T18:47:34.126Z,6.68
2022-09-10T18:50:02.789Z,10.10
2022-09-10T18:52:29.958Z,7.68
2022-09-10T18:54:58.758Z,6.97
2022-09-10T18:57:26.403Z,9.43
2022-09-10T18:59:55.420Z,10.68
2022-09-10T19:02:22.641Z,12.13
2022-09-10T19:05:10.224Z,10.52
2022-09-10T19:07:41.578Z,10.45
2022-09-10T19:10:10.383Z,6.82
2022-09-10T19:12:43.068Z,8.23
2022-09-10T19:15:14.046Z,7.60
2022-09-10T19:17:44.328Z,7.32
2022-09-10T19:20:11.422Z,7.82
2022-09-10T19:22:39.030Z,6.90
2022-09-10T19:25:15.604Z,8.32
2022-09-10T19:27:43.393Z,13.27
2022-09-10T19:30:16.695Z,12.52
2022-09-10T19:32:46.255Z,7.50
2022-09-10T19:35:16.536Z,9.18
2022-09-10T19:37:43.505Z,14.88
2022-09-10T19:40:12.537Z,10.20
2022-09-10T19:42:42.919Z,9.52
2022-09-10T19:45:13.521Z,14.20
2022-09-10T19:47:45.174Z,9.00
2022-09-10T19:50:23.476Z,10.77
2022-09-10T19:52:53.400Z,13.00
2022-09-10T19:55:27.340Z,8.50
2022-09-10T19:57:54.992Z,4.85
2022-09-10T20:00:45.337Z,6.32
2022-09-10T20:03:09.152Z,8.77
2022-09-10T20:05:38.518Z,8.40
2022-09-10T20:08:07.041Z,10.95
2022-09-10T20:10:38.488Z,9.32
2022-09-10T20:13:08.646Z,12.50
2022-09-10T20:15:43.484Z,11.80
2022-09-10T20:18:12.930Z,8.02
2022-09-10T20:20:39.853Z,12.68
2022-09-10T20:23:06.927Z,9.15
2022-09-10T20:25:36.354Z,9.82
2022-09-10T20:28:05.269Z,7.85
2022-09-10T20:30:32.370Z,6.10
2022-09-10T20:33:02.767Z,9.02
2022-09-10T20:35:32.418Z,9.75
2022-09-10T20:38:00.025Z,7.85
2022-09-10T20:40:27.030Z,7.97
2022-09-10T20:42:54.285Z,11.02
2022-09-10T20:45:27.510Z,6.65
2022-09-10T20:47:54.659Z,7.90
2022-09-10T20:50:24.746Z,9.75
2022-09-10T20:52:51.765Z,8.10
2022-09-10T20:55:19.140Z,7.93
2022-09-10T20:57:46.330Z,6.80
2022-09-10T21:00:17.042Z,7.47
2022-09-10T21:02:48.491Z,9.15
2022-09-10T21:05:15.610Z,8.32
2022-09-10T21:07:42.862Z,7.63
2022-09-10T21:10:09.696Z,11.48
2022-09-10T21:12:37.701Z,5.72
2022-09-10T21:15:05.727Z,6.10
2022-09-10T21:17:32.313Z,5.20
2022-09-10T21:19:59.570Z,8.82
2022-09-10T21:22:26.192Z,7.38
2022-09-10T21:24:53.385Z,5.97
2022-09-10T21:27:20.093Z,4.68
2022-09-10T21:29:47.124Z,7.15
2022-09-10T21:32:13.709Z,4.35
2022-09-10T21:34:40.386Z,8.88
2022-09-10T21:37:06.986Z,3.97
2022-09-10T21:39:33.643Z,7.43
2022-09-10T21:42:00.167Z,7.53
2022-09-10T21:44:26.839Z,7.50
2022-09-10T21:46:53.611Z,5.20
2022-09-10T21:49:20.554Z,8.20
2022-09-10T21:51:47.525Z,7.80
2022-09-10T21:54:18.598Z,8.07
2022-09-10T21:56:45.536Z,9.87
2022-09-10T21:59:12.733Z,8.25
2022-09-10T22:01:42.071Z,11.52
2022-09-10T22:04:08.875Z,6.43
2022-09-10T22:06:36.199Z,6.15
2022-09-10T22:09:06.991Z,5.07
2022-09-10T22:11:36.803Z,10.15
2022-09-10T22:14:06.460Z,9.20
2022-09-10T22:16:34.782Z,9.38
2022-09-10T22:19:04.532Z,11.80
2022-09-10T22:21:31.196Z,9.27
2022-09-10T22:23:58.662Z,10.77
2022-09-10T22:26:30.488Z,6.88
2022-09-10T22:29:03.172Z,8.98
2022-09-10T22:31:33.045Z,9.65
2022-09-10T22:34:06.457Z,6.72
2022-09-10T22:36:35.534Z,7.85
2022-09-10T22:39:05.074Z,6.88
2022-09-10T22:41:34.157Z,7.10
2022-09-10T22:44:01.632Z,10.60
2022-09-10T22:46:28.917Z,7.47
2022-09-10T22:48:56.499Z,6.88
2022-09-10T22:51:28.221Z,9.70
2022-09-10T22:53:56.108Z,8.35
2022-09-10T22:56:26.200Z,7.22
2022-09-10T22:58:54.633Z,8.82
2022-09-10T23:01:24.287Z,7.13
2022-09-10T23:03:53.027Z,11.05
2022-09-10T23:06:24.081Z,12.90
2022-09-10T23:08:53.597Z,9.85
2022-09-10T23:11:26.358Z,9.90
2022-09-10T23:13:57.459Z,7.25
2022-09-10T23:16:25.707Z,8.20
2022-09-10T23:18:54.754Z,7.43
2022-09-10T23:21:26.720Z,12.77
2022-09-10T23:26:22.930Z,9.05
2022-09-10T23:28:50.725Z,13.00
2022-09-10T23:31:22.968Z,10.30
2022-09-10T23:34:01.267Z,10.38
2022-09-10T23:36:31.388Z,14.20
2022-09-10T23:39:13.369Z,11.02
2022-09-10T23:41:41.736Z,14.27
2022-09-10T23:44:09.470Z,10.98
2022-09-10T23:46:37.261Z,10.02
2022-09-10T23:49:04.930Z,10.15
2022-09-10T23:51:31.989Z,10.20
2022-09-10T23:53:59.524Z,12.27
2022-09-10T23:56:28.404Z,8.63
2022-09-10T23:58:56.201Z,10.65
